Woods, Texas
Current Conditions -  °F | °C
As of 11:15 AM on Sunday 23 Nov 2014 (Local Time) from KOCH Reporting Station
Broken Clouds Broken Clouds  
Wind Chill: 63°   Ceiling: 1200
Heat Index: 63°   Visibility: 10mi
Dew Point: 57°   Wind: 10mph
Humidity: 82%   Direction: 250°WSW
Pressure: 29.57"   Gusts: NA
Location:  31.9382°N, 94.2541°W
Report Text: KOCH 231715Z AUTO 25009KT 10SM BKN012 17/14 A2957 RMK AO1
Loading
Personal Weather Stations






























Interactive Weather Map New forecast layout! Learn more

10-Day Weather Forecast

Advertisements
Track Severe Weather on mobile